DNEN

Akanu Ibiam International Airport

Enegu, Nigeria
TAF DNEN 170930Z 1712/1818 27011KT 9999 BKN011 FEW021CB TEMPO 1713/1716 TS PROB30 1714/1716 5000 -TSRA BKN009 FEW019CB BECMG 1718/1720 VRB02KT SCT009
Issued Valid From Valid To
Aug-17 @ 09:30 UTC
(5 hours ago)
Aug-17 @ 12:00 UTC
(3 hours ago)
Aug-18 @ 18:00 UTC
(-1 days ago)
Aug-17 @ 12:00 to Aug-17 @ 18:00
TAF DNEN 170930Z 1712/1818 27011KT 9999 BKN011 FEW021CB
Wind Visibility Clouds
270° at 11 knots 10,000+ meters
  • Broken at 1,100' AGL
  • Few at 2,100' AGL
Temporary Aug-17 @ 13:00 to Aug-17 @ 16:00
TEMPO 1713/1716 TS
Conditions
  • Thunderstorm
Probable  (Probability 30%) Aug-17 @ 14:00 to Aug-17 @ 16:00
PROB30 1714/1716 5000 -TSRA BKN009 FEW019CB
Visibility Clouds Conditions
5,005 meters
  • Broken at 900' AGL
  • Few at 1,900' AGL
  • Light Thunderstorm
  • Light Rain
Becoming Aug-17 @ 18:00 to Aug-18 @ 18:00
BECMG 1718/1720 VRB02KT SCT009
Wind Visibility Clouds
Variable at 2 knots 10,000+ meters
  • Scattered at 900' AGL
TAF DNEN 170930Z 1712/1818 27011KT 9999 BKN011 FEW021CB TEMPO 1713/1716 TS PROB30 1714/1716 5000 -TSRA BKN009 FEW019CB BECMG 1718/1720 VRB02KT SCT009
Issued Aug-17 @ 09:30 UTC
(5 hours ago)
Valid From Aug-17 @ 12:00 UTC
(3 hours ago)
Valid To Aug-18 @ 18:00 UTC
(-1 days ago)
Aug-17 @ 12:00 - Aug-17 @ 18:00
Wind Visibility
270° at 11 knots 10,000+ meters
Clouds
  • Broken at 1,100' AGL
  • Few at 2,100' AGL
Temporary Aug-17 @ 13:00 - Aug-17 @ 16:00
Conditions
  • Thunderstorm
Probability 30% Probable Aug-17 @ 14:00 - Aug-17 @ 16:00
Clouds
  • Broken at 900' AGL
  • Few at 1,900' AGL
Conditions
  • Light Thunderstorm
  • Light Rain
Becoming Aug-17 @ 18:00 - Aug-18 @ 18:00
Wind Visibility
Variable at 2 knots 10,000+ meters
Clouds
  • Scattered at 900' AGL